createdAt,value
2023-05-05T00:01:07.963Z,37.8
2023-05-05T00:02:24.163Z,37.8
2023-05-05T00:03:40.366Z,37.8
2023-05-05T00:04:56.547Z,37.8
2023-05-05T00:06:12.787Z,37.8
2023-05-05T00:07:28.979Z,37.8
2023-05-05T00:08:45.118Z,37.8
2023-05-05T00:10:01.315Z,37.8
2023-05-05T00:12:33.698Z,37.8
2023-05-05T00:13:49.899Z,37.8
2023-05-05T00:16:22.277Z,37.8
2023-05-05T00:17:37.512Z,37.8
2023-05-05T00:20:09.892Z,37.8
2023-05-05T00:21:26.091Z,37.8
2023-05-05T00:22:42.292Z,37.8
2023-05-05T00:23:58.522Z,37.8
2023-05-05T00:25:14.663Z,37.8
2023-05-05T00:26:30.906Z,37.8
2023-05-05T00:27:47.045Z,37.8
2023-05-05T00:32:51.813Z,37.8
2023-05-05T00:35:23.252Z,37.8
2023-05-05T00:36:39.448Z,37.8
2023-05-05T00:37:55.626Z,37.8
2023-05-05T00:39:11.814Z,37.8
2023-05-05T00:40:28.008Z,37.8
2023-05-05T00:41:44.217Z,37.8
2023-05-05T00:43:00.400Z,37.8
2023-05-05T00:44:16.595Z,37.8
2023-05-05T00:45:32.834Z,37.8
2023-05-05T00:48:05.159Z,37.8
2023-05-05T00:50:36.618Z,37.9
2023-05-05T00:51:51.889Z,37.8
2023-05-05T00:53:08.122Z,37.8
2023-05-05T00:54:24.262Z,37.9
2023-05-05T00:55:40.450Z,37.8
2023-05-05T00:58:12.838Z,37.9
2023-05-05T00:59:29.024Z,37.9
2023-05-05T01:00:45.215Z,37.9
2023-05-05T01:03:17.616Z,37.9
2023-05-05T01:05:50.003Z,37.9
2023-05-05T01:07:06.208Z,37.9
2023-05-05T01:09:37.635Z,37.9
2023-05-05T01:10:53.817Z,37.9
2023-05-05T01:13:26.202Z,37.9
2023-05-05T01:14:42.407Z,37.9
2023-05-05T01:15:58.586Z,37.9
2023-05-05T01:17:14.772Z,37.9
2023-05-05T01:18:30.977Z,37.9
2023-05-05T01:19:47.201Z,37.9
2023-05-05T01:22:19.545Z,37.9
2023-05-05T01:23:35.749Z,37.9
2023-05-05T01:24:51.937Z,37.9
2023-05-05T01:26:07.180Z,37.9
2023-05-05T01:28:39.558Z,37.9
2023-05-05T01:29:55.749Z,37.9
2023-05-05T01:31:11.941Z,37.9
2023-05-05T01:33:44.321Z,37.9
2023-05-05T01:36:16.713Z,37.9
2023-05-05T01:37:32.906Z,37.9
2023-05-05T01:38:49.083Z,37.9
2023-05-05T01:40:05.272Z,37.9
2023-05-05T01:41:21.512Z,37.9
2023-05-05T01:42:36.751Z,37.9
2023-05-05T01:43:52.902Z,37.9
2023-05-05T01:45:09.097Z,37.9
2023-05-05T01:46:25.292Z,37.9
2023-05-05T01:47:41.482Z,37.9
2023-05-05T01:48:57.673Z,37.9
2023-05-05T01:51:30.054Z,37.9
2023-05-05T01:52:46.249Z,37.9
2023-05-05T01:55:18.672Z,38
2023-05-05T01:56:34.820Z,37.9
2023-05-05T01:57:51.056Z,38
2023-05-05T01:59:07.200Z,38
2023-05-05T02:01:38.679Z,37.9
2023-05-05T02:02:54.819Z,38
2023-05-05T02:04:11.010Z,38
2023-05-05T02:05:27.210Z,38
2023-05-05T02:09:15.780Z,38
2023-05-05T02:10:31.982Z,38
2023-05-05T02:11:48.161Z,38
2023-05-05T02:13:04.372Z,38
2023-05-05T02:14:20.547Z,38
2023-05-05T02:15:36.736Z,38
2023-05-05T02:16:52.030Z,38
2023-05-05T02:18:08.186Z,38
2023-05-05T02:19:24.377Z,38
2023-05-05T02:20:40.606Z,38
2023-05-05T02:21:56.745Z,38
2023-05-05T02:25:45.328Z,38
2023-05-05T02:27:01.522Z,38
2023-05-05T02:28:17.706Z,38
2023-05-05T02:29:33.915Z,38
2023-05-05T02:30:50.106Z,38
2023-05-05T02:32:06.292Z,38
2023-05-05T02:33:21.525Z,38
2023-05-05T02:35:53.958Z,38
2023-05-05T02:37:10.095Z,38
2023-05-05T02:38:26.292Z,38
2023-05-05T02:40:58.679Z,38
2023-05-05T02:42:14.873Z,38
2023-05-05T02:44:47.263Z,38
2023-05-05T02:46:03.438Z,38
2023-05-05T02:47:19.685Z,38
2023-05-05T02:48:35.836Z,38
2023-05-05T02:49:51.065Z,38
2023-05-05T02:52:23.457Z,38
2023-05-05T02:53:39.649Z,38
2023-05-05T02:54:55.842Z,38
2023-05-05T02:56:12.023Z,38
2023-05-05T02:57:28.269Z,38.1
2023-05-05T02:58:44.461Z,38
2023-05-05T03:00:00.607Z,38
2023-05-05T03:01:16.807Z,38
2023-05-05T03:03:49.191Z,38.1
2023-05-05T03:05:05.374Z,38
2023-05-05T03:06:20.608Z,38.1
2023-05-05T03:07:36.808Z,38.1
2023-05-05T03:10:09.188Z,38.1
2023-05-05T03:11:25.379Z,38.1
2023-05-05T03:12:41.563Z,38.1
2023-05-05T03:13:57.812Z,38.1
2023-05-05T03:15:13.958Z,38.1
2023-05-05T03:16:30.154Z,38
2023-05-05T03:17:46.343Z,38.1
2023-05-05T03:19:02.535Z,38.1
2023-05-05T03:20:18.722Z,38.1
2023-05-05T03:22:51.102Z,38.1
2023-05-05T03:24:06.346Z,38.1
2023-05-05T03:25:22.539Z,38.1
2023-05-05T03:26:38.724Z,38.1
2023-05-05T03:27:54.920Z,38.1
2023-05-05T03:30:27.355Z,38.1
2023-05-05T03:32:59.739Z,38.1
2023-05-05T03:34:15.881Z,38.1
2023-05-05T03:35:32.075Z,38
2023-05-05T03:36:48.315Z,38
2023-05-05T03:38:04.454Z,38.1
2023-05-05T03:39:20.650Z,38.1
2023-05-05T03:40:35.900Z,38.1
2023-05-05T03:41:52.092Z,38.1
2023-05-05T03:43:08.282Z,38.1
2023-05-05T03:45:40.662Z,38.1
2023-05-05T03:46:56.841Z,38.1
2023-05-05T03:48:13.043Z,38.1
2023-05-05T03:50:45.415Z,38.1
2023-05-05T03:52:01.667Z,38.1
2023-05-05T03:53:17.808Z,38.1
2023-05-05T03:54:34.050Z,38.1
2023-05-05T03:55:50.242Z,38.1
2023-05-05T03:57:05.432Z,38.1
2023-05-05T03:58:21.633Z,38.1
2023-05-05T04:02:10.208Z,38.1
2023-05-05T04:03:26.394Z,38.1
2023-05-05T04:04:42.586Z,38.1
2023-05-05T04:05:58.776Z,38.1
2023-05-05T04:07:14.976Z,38.1
2023-05-05T04:08:31.168Z,38.1
2023-05-05T04:09:47.349Z,38.1
2023-05-05T04:11:03.533Z,38.1
2023-05-05T04:12:19.727Z,38.1
2023-05-05T04:13:34.967Z,38.1
2023-05-05T04:14:51.217Z,38.1
2023-05-05T04:16:07.368Z,38.1
2023-05-05T04:17:23.543Z,38.1
2023-05-05T04:19:55.926Z,38.1
2023-05-05T04:21:12.122Z,38.1
2023-05-05T04:22:28.328Z,38.1
2023-05-05T04:25:00.705Z,38.1
2023-05-05T04:26:16.884Z,38.1
2023-05-05T04:27:33.078Z,38.1
2023-05-05T04:28:49.286Z,38.1
2023-05-05T04:30:04.568Z,38.2
2023-05-05T04:31:20.711Z,38.1
2023-05-05T04:32:36.908Z,38.1
2023-05-05T04:33:53.144Z,38.1
2023-05-05T04:35:09.283Z,38.1
2023-05-05T04:36:25.474Z,38.1
2023-05-05T04:38:57.870Z,38.1
2023-05-05T04:40:14.049Z,38.1
2023-05-05T04:41:30.242Z,38.1
2023-05-05T04:42:46.438Z,38.1
2023-05-05T04:44:02.637Z,38.1
2023-05-05T04:45:18.827Z,38.1
2023-05-05T04:46:34.051Z,38.1
2023-05-05T04:47:50.247Z,38.1
2023-05-05T04:49:06.495Z,38.1
2023-05-05T04:50:22.635Z,38.1
2023-05-05T04:51:37.909Z,38.1
2023-05-05T04:54:09.338Z,38.1
2023-05-05T04:55:25.525Z,38.1
2023-05-05T04:56:41.711Z,38.1
2023-05-05T04:57:57.907Z,38.1
2023-05-05T04:59:14.096Z,38.1
2023-05-05T05:00:30.349Z,38.1
2023-05-05T05:01:46.498Z,38.1
2023-05-05T05:03:02.687Z,38.1
2023-05-05T05:05:35.062Z,38.1
2023-05-05T05:06:50.333Z,38.1
2023-05-05T05:08:06.508Z,38.1
2023-05-05T05:09:22.712Z,38.1
2023-05-05T05:10:38.905Z,38.1
2023-05-05T05:13:11.273Z,38.2
2023-05-05T05:14:26.561Z,38.1
2023-05-05T05:16:57.996Z,38.2
2023-05-05T05:18:14.177Z,38.1
2023-05-05T05:20:46.550Z,38.1
2023-05-05T05:22:02.763Z,38.2
2023-05-05T05:23:18.949Z,38.1
2023-05-05T05:24:35.145Z,38.1
2023-05-05T05:25:51.324Z,38.1
2023-05-05T05:28:23.715Z,38.1
2023-05-05T05:29:39.912Z,38.1
2023-05-05T05:30:56.150Z,38.1
2023-05-05T05:32:12.286Z,38.1
2023-05-05T05:33:28.470Z,38.1
2023-05-05T05:35:59.921Z,38.1
2023-05-05T05:37:16.101Z,38.1
2023-05-05T05:39:48.485Z,38.1
2023-05-05T05:41:04.689Z,38.2
2023-05-05T05:42:20.869Z,38.2
2023-05-05T05:43:37.060Z,38.1
2023-05-05T05:44:53.262Z,38.1
2023-05-05T05:47:25.637Z,38.2
2023-05-05T05:49:58.028Z,38.2
2023-05-05T05:51:14.205Z,38.2
2023-05-05T05:52:29.447Z,38.2
2023-05-05T05:56:18.023Z,38.5
2023-05-05T05:58:50.408Z,38.9
2023-05-05T06:00:06.605Z,39
2023-05-05T06:01:22.801Z,39.1
2023-05-05T06:02:38.985Z,38.5
2023-05-05T06:03:55.176Z,39.3
2023-05-05T06:06:27.562Z,40.1
2023-05-05T06:08:59.950Z,39.8
2023-05-05T06:10:16.147Z,39.9
2023-05-05T06:11:32.343Z,39.9
2023-05-05T06:14:03.765Z,40.3
2023-05-05T06:15:19.961Z,40.1
2023-05-05T06:16:36.156Z,40.3
2023-05-05T06:17:52.336Z,40.7
2023-05-05T06:19:08.529Z,40.9
2023-05-05T06:20:24.726Z,41.1
2023-05-05T06:24:13.295Z,41.3
2023-05-05T06:25:29.486Z,40.9
2023-05-05T06:26:45.679Z,41.6
2023-05-05T06:28:01.886Z,42.1
2023-05-05T06:29:17.126Z,41.4
2023-05-05T06:30:33.310Z,41.4
2023-05-05T06:31:49.504Z,41.3
2023-05-05T06:33:05.702Z,41.6
2023-05-05T06:34:21.891Z,41.5
2023-05-05T06:35:38.133Z,41.7
2023-05-05T06:36:54.279Z,41.6
2023-05-05T06:39:26.710Z,41.8
2023-05-05T06:41:59.036Z,41.5
2023-05-05T06:43:15.221Z,40.2
2023-05-05T06:45:47.608Z,40.8
2023-05-05T06:47:03.862Z,40.4
2023-05-05T06:49:36.184Z,39.7
2023-05-05T06:50:51.431Z,39.3
2023-05-05T06:53:23.820Z,39.4
2023-05-05T06:54:40.013Z,39.6
2023-05-05T06:57:12.396Z,39.4
2023-05-05T06:58:28.588Z,40.3
2023-05-05T06:59:44.776Z,40.3
2023-05-05T07:02:17.161Z,41.4
2023-05-05T07:03:33.347Z,40.9
2023-05-05T07:08:38.118Z,40.4
2023-05-05T07:09:53.352Z,41
2023-05-05T07:13:41.940Z,40
2023-05-05T07:14:58.129Z,40.3
2023-05-05T07:17:30.504Z,40.5
2023-05-05T07:20:02.888Z,40.3
2023-05-05T07:21:19.079Z,40.5
2023-05-05T07:26:23.843Z,40.9
2023-05-05T07:28:55.271Z,41.1
2023-05-05T07:31:27.660Z,41.1
2023-05-05T07:32:43.857Z,41.3
2023-05-05T07:36:32.430Z,43
2023-05-05T07:37:48.616Z,42.3
2023-05-05T07:42:53.391Z,40.4
2023-05-05T07:47:58.155Z,39
2023-05-05T07:49:14.350Z,38.4
2023-05-05T07:51:45.779Z,38.5
